Login to view products. 
Saturday, June 24, 2017 (20:38 UTC)
Sharjah International Airport
ICAO Code: OMSJ
IATA Code: SHJ
  • METAR OMSJ 242030Z 12004KT 100V160 CAVOK 32/23 Q0999=
  • TAF OMSJ 241700Z 2418/2600 18005KT CAVOK BECMG 2506/2508 29012KT BECMG 2515/2517 17005KT=